RUK5DM EGSS-EGPH
Flight info
| Callsign | RUK5DM |
|---|---|
| Flight time | N/A |
| Altitude | 32000 |
| Route | UTAVA Q75 BUZAD T420 TNT UN57 POL UN601 RIBEL DCT INPIP |
| Aircraft | B38M/M-SDE1FGHILORVWXY/HB1 |
Departure
| Time | 2026-05-06 16:30 |
|---|---|
| Airport | London Stansted Airport (EGSS) |
Arrival
| Time | N/A |
|---|---|
| Airport | Edinburgh Airport (EGPH) |
| Time | Latitude | Longitude | Altitude | Speed | Heading |
|---|---|---|---|---|---|
| 2026-05-06 16:00 | 51.89152 | 0.25753 | 351 ft | 0 kts | 222° |
| 2026-05-06 16:15 | 51.89161 | 0.25767 | 351 ft | 3 kts | 222° |
| 2026-05-06 16:16 | 51.89174 | 0.25785 | 354 ft | 2 kts | 222° |
| 2026-05-06 16:16 | 51.89186 | 0.25807 | 359 ft | 3 kts | 251° |
| 2026-05-06 16:16 | 51.89186 | 0.25833 | 359 ft | 3 kts | 298° |
| 2026-05-06 16:16 | 51.89175 | 0.25856 | 361 ft | 2 kts | 313° |
| 2026-05-06 16:17 | 51.89172 | 0.25863 | 361 ft | 0 kts | 313° |
| 2026-05-06 16:22 | 51.89172 | 0.25861 | 361 ft | 1 kts | 313° |
| 2026-05-06 16:22 | 51.89184 | 0.25841 | 358 ft | 5 kts | 313° |
| 2026-05-06 16:22 | 51.89230 | 0.25763 | 355 ft | 11 kts | 315° |
| 2026-05-06 16:22 | 51.89284 | 0.25666 | 356 ft | 12 kts | 316° |
| 2026-05-06 16:23 | 51.89333 | 0.25574 | 356 ft | 11 kts | 296° |
| 2026-05-06 16:23 | 51.89327 | 0.25507 | 354 ft | 5 kts | 229° |
| 2026-05-06 16:23 | 51.89298 | 0.25460 | 351 ft | 7 kts | 224° |
| 2026-05-06 16:23 | 51.89254 | 0.25393 | 354 ft | 10 kts | 222° |
| 2026-05-06 16:24 | 51.89196 | 0.25307 | 358 ft | 13 kts | 223° |
| 2026-05-06 16:24 | 51.89126 | 0.25202 | 353 ft | 15 kts | 223° |
| 2026-05-06 16:24 | 51.89045 | 0.25079 | 355 ft | 17 kts | 223° |
| 2026-05-06 16:24 | 51.88958 | 0.24948 | 351 ft | 14 kts | 222° |
| 2026-05-06 16:25 | 51.88879 | 0.24830 | 351 ft | 17 kts | 222° |
| 2026-05-06 16:25 | 51.88788 | 0.24694 | 356 ft | 19 kts | 225° |
| 2026-05-06 16:25 | 51.88687 | 0.24543 | 351 ft | 21 kts | 223° |
| 2026-05-06 16:25 | 51.88584 | 0.24389 | 353 ft | 19 kts | 224° |
| 2026-05-06 16:26 | 51.88499 | 0.24262 | 351 ft | 16 kts | 223° |
| 2026-05-06 16:26 | 51.88411 | 0.24128 | 354 ft | 18 kts | 223° |
| 2026-05-06 16:26 | 51.88311 | 0.23978 | 358 ft | 21 kts | 223° |
| 2026-05-06 16:26 | 51.88201 | 0.23813 | 352 ft | 23 kts | 224° |
| 2026-05-06 16:27 | 51.88080 | 0.23634 | 351 ft | 24 kts | 227° |
| 2026-05-06 16:27 | 51.87958 | 0.23449 | 353 ft | 20 kts | 223° |
| 2026-05-06 16:27 | 51.87874 | 0.23323 | 357 ft | 15 kts | 223° |
| 2026-05-06 16:27 | 51.87792 | 0.23200 | 351 ft | 17 kts | 223° |
| 2026-05-06 16:28 | 51.87729 | 0.23073 | 353 ft | 13 kts | 268° |
| 2026-05-06 16:28 | 51.87779 | 0.22952 | 351 ft | 14 kts | 313° |
| 2026-05-06 16:28 | 51.87852 | 0.22827 | 351 ft | 16 kts | 312° |
| 2026-05-06 16:28 | 51.87928 | 0.22692 | 353 ft | 4 kts | 312° |
| 2026-05-06 16:29 | 51.87957 | 0.22675 | 351 ft | 5 kts | 7° |
| 2026-05-06 16:29 | 51.87987 | 0.22710 | 353 ft | 7 kts | 43° |
| 2026-05-06 16:29 | 51.88033 | 0.22780 | 352 ft | 13 kts | 43° |
| 2026-05-06 16:29 | 51.88276 | 0.23144 | 349 ft | 89 kts | 43° |
| 2026-05-06 16:30 | 51.88924 | 0.24117 | 362 ft | 160 kts | 43° |
| 2026-05-06 16:30 | 51.89501 | 0.25000 | 644 ft | 184 kts | 43° |
| 2026-05-06 16:30 | 51.90817 | 0.27121 | 1822 ft | 205 kts | 43° |
| 2026-05-06 16:30 | 51.91865 | 0.28737 | 2820 ft | 210 kts | 42° |
| 2026-05-06 16:31 | 51.93106 | 0.30075 | 3605 ft | 221 kts | 19° |
| 2026-05-06 16:31 | 51.94564 | 0.30303 | 3949 ft | 206 kts | 354° |
| 2026-05-06 16:31 | 51.95795 | 0.29316 | 3871 ft | 197 kts | 320° |
| 2026-05-06 16:31 | 51.96539 | 0.27449 | 3692 ft | 199 kts | 293° |
| 2026-05-06 16:32 | 51.96867 | 0.25189 | 3829 ft | 216 kts | 283° |
| 2026-05-06 16:32 | 51.97153 | 0.22730 | 3927 ft | 233 kts | 284° |
| 2026-05-06 16:32 | 51.97458 | 0.20039 | 3977 ft | 251 kts | 283° |
| 2026-05-06 16:32 | 51.97771 | 0.17214 | 4067 ft | 258 kts | 282° |
| 2026-05-06 16:33 | 51.98089 | 0.14318 | 4175 ft | 263 kts | 281° |
| 2026-05-06 16:33 | 51.98410 | 0.11390 | 4326 ft | 264 kts | 281° |
| 2026-05-06 16:33 | 51.98731 | 0.08448 | 4476 ft | 266 kts | 282° |
| 2026-05-06 16:34 | 51.98702 | 0.02461 | 4764 ft | 269 kts | 264° |
| 2026-05-06 16:34 | 51.98473 | -0.00559 | 4910 ft | 271 kts | 264° |
| 2026-05-06 16:34 | 51.98244 | -0.03581 | 4996 ft | 268 kts | 265° |
| 2026-05-06 16:34 | 51.98016 | -0.06581 | 5004 ft | 268 kts | 264° |
| 2026-05-06 16:35 | 51.97782 | -0.09642 | 5625 ft | 280 kts | 264° |
| 2026-05-06 16:35 | 51.97538 | -0.12857 | 6446 ft | 297 kts | 263° |
| 2026-05-06 16:35 | 51.97282 | -0.16212 | 7438 ft | 300 kts | 265° |
| 2026-05-06 16:35 | 51.97026 | -0.19551 | 8487 ft | 304 kts | 264° |
| 2026-05-06 16:36 | 51.96761 | -0.22971 | 9550 ft | 307 kts | 266° |
| 2026-05-06 16:36 | 51.96496 | -0.26403 | 10556 ft | 310 kts | 264° |
| 2026-05-06 16:36 | 51.96225 | -0.29906 | 11440 ft | 315 kts | 265° |
| 2026-05-06 16:36 | 51.95949 | -0.33436 | 12417 ft | 316 kts | 264° |
| 2026-05-06 16:37 | 51.95671 | -0.36994 | 13302 ft | 321 kts | 264° |
| 2026-05-06 16:37 | 51.95386 | -0.40606 | 14165 ft | 323 kts | 264° |
| 2026-05-06 16:37 | 51.95100 | -0.44231 | 14939 ft | 327 kts | 264° |
| 2026-05-06 16:37 | 51.94811 | -0.47889 | 15768 ft | 327 kts | 264° |
| 2026-05-06 16:38 | 51.94852 | -0.51578 | 16405 ft | 333 kts | 283° |
| 2026-05-06 16:38 | 51.95730 | -0.54996 | 17209 ft | 332 kts | 303° |
| 2026-05-06 16:38 | 51.97292 | -0.57780 | 17879 ft | 340 kts | 320° |
| 2026-05-06 16:38 | 51.99245 | -0.59922 | 18436 ft | 346 kts | 325° |
| 2026-05-06 16:39 | 52.01288 | -0.62021 | 19087 ft | 348 kts | 326° |
| 2026-05-06 16:39 | 52.03359 | -0.64108 | 19623 ft | 353 kts | 326° |
| 2026-05-06 16:39 | 52.05457 | -0.66198 | 20203 ft | 356 kts | 327° |
| 2026-05-06 16:39 | 52.07589 | -0.68306 | 20756 ft | 360 kts | 327° |
| 2026-05-06 16:40 | 52.09735 | -0.70422 | 21313 ft | 363 kts | 327° |
| 2026-05-06 16:40 | 52.11903 | -0.72557 | 21870 ft | 366 kts | 327° |
| 2026-05-06 16:40 | 52.14094 | -0.74717 | 22421 ft | 370 kts | 326° |
| 2026-05-06 16:40 | 52.16262 | -0.76857 | 22963 ft | 373 kts | 326° |
| 2026-05-06 16:41 | 52.18522 | -0.79089 | 23504 ft | 377 kts | 326° |
| 2026-05-06 16:41 | 52.20739 | -0.81281 | 23969 ft | 379 kts | 326° |
| 2026-05-06 16:41 | 52.23001 | -0.83521 | 24440 ft | 382 kts | 326° |
| 2026-05-06 16:41 | 52.25279 | -0.85779 | 24904 ft | 385 kts | 326° |
| 2026-05-06 16:42 | 52.27579 | -0.88062 | 25371 ft | 388 kts | 326° |
| 2026-05-06 16:42 | 52.29888 | -0.90357 | 25845 ft | 390 kts | 326° |
| 2026-05-06 16:42 | 52.32216 | -0.92673 | 26307 ft | 393 kts | 326° |
| 2026-05-06 16:42 | 52.34555 | -0.95004 | 26776 ft | 395 kts | 326° |
| 2026-05-06 16:43 | 52.36901 | -0.97343 | 27346 ft | 394 kts | 326° |
| 2026-05-06 16:43 | 52.39223 | -0.99662 | 27916 ft | 393 kts | 326° |
| 2026-05-06 16:43 | 52.41552 | -1.01991 | 28503 ft | 391 kts | 325° |
| 2026-05-06 16:43 | 52.43865 | -1.04307 | 29046 ft | 390 kts | 325° |
| 2026-05-06 16:44 | 52.46149 | -1.06597 | 29573 ft | 389 kts | 325° |
| 2026-05-06 16:44 | 52.48454 | -1.08911 | 30099 ft | 388 kts | 325° |
| 2026-05-06 16:44 | 52.50753 | -1.11220 | 30520 ft | 388 kts | 325° |
| 2026-05-06 16:44 | 52.53052 | -1.13534 | 30958 ft | 387 kts | 325° |
| 2026-05-06 16:45 | 52.55338 | -1.15836 | 31393 ft | 385 kts | 325° |
| 2026-05-06 16:45 | 52.57621 | -1.18138 | 31789 ft | 385 kts | 325° |
| 2026-05-06 16:45 | 52.59892 | -1.20430 | 32175 ft | 384 kts | 325° |
| 2026-05-06 16:45 | 52.62164 | -1.22726 | 32567 ft | 383 kts | 325° |
| 2026-05-06 16:46 | 52.64430 | -1.25018 | 32947 ft | 382 kts | 324° |
| 2026-05-06 16:46 | 52.66694 | -1.27312 | 33321 ft | 382 kts | 324° |
| 2026-05-06 16:46 | 52.68953 | -1.29603 | 33677 ft | 381 kts | 324° |
| 2026-05-06 16:46 | 52.71208 | -1.31896 | 34032 ft | 380 kts | 324° |
| 2026-05-06 16:47 | 52.73459 | -1.34186 | 34329 ft | 380 kts | 324° |
| 2026-05-06 16:47 | 52.75707 | -1.36477 | 34636 ft | 380 kts | 325° |
| 2026-05-06 16:47 | 52.77928 | -1.38743 | 34910 ft | 380 kts | 325° |
| 2026-05-06 16:47 | 52.80171 | -1.41034 | 35054 ft | 382 kts | 325° |
| 2026-05-06 16:48 | 52.82428 | -1.43343 | 35055 ft | 380 kts | 325° |
| 2026-05-06 16:48 | 52.86908 | -1.47933 | 35049 ft | 378 kts | 325° |
| 2026-05-06 16:49 | 52.91380 | -1.52527 | 35051 ft | 378 kts | 325° |
| 2026-05-06 16:49 | 52.95843 | -1.57123 | 35041 ft | 377 kts | 325° |
| 2026-05-06 16:50 | 53.00298 | -1.61722 | 35052 ft | 377 kts | 325° |
| 2026-05-06 16:50 | 53.04714 | -1.66280 | 35030 ft | 377 kts | 327° |
| 2026-05-06 16:50 | 53.06862 | -1.67924 | 35026 ft | 379 kts | 338° |
| 2026-05-06 16:51 | 53.09381 | -1.69426 | 35036 ft | 381 kts | 336° |
| 2026-05-06 16:51 | 53.14305 | -1.72505 | 35030 ft | 381 kts | 336° |
| 2026-05-06 16:52 | 53.19273 | -1.75594 | 35030 ft | 381 kts | 336° |
| 2026-05-06 16:52 | 53.24230 | -1.78679 | 35045 ft | 381 kts | 336° |
| 2026-05-06 16:53 | 53.29182 | -1.81769 | 35031 ft | 380 kts | 336° |
| 2026-05-06 16:53 | 53.34140 | -1.84871 | 35022 ft | 380 kts | 336° |
| 2026-05-06 16:54 | 53.39089 | -1.87974 | 35024 ft | 380 kts | 336° |
| 2026-05-06 16:54 | 53.44042 | -1.91087 | 35023 ft | 380 kts | 336° |
| 2026-05-06 16:55 | 53.48943 | -1.94176 | 35021 ft | 380 kts | 336° |
| 2026-05-06 16:55 | 53.53891 | -1.97302 | 35028 ft | 380 kts | 336° |
| 2026-05-06 16:56 | 53.58842 | -2.00438 | 35021 ft | 380 kts | 336° |
| 2026-05-06 16:56 | 53.63788 | -2.03578 | 35023 ft | 380 kts | 336° |
| 2026-05-06 16:57 | 53.68734 | -2.06726 | 35025 ft | 380 kts | 336° |
| 2026-05-06 16:57 | 53.73664 | -2.09872 | 35034 ft | 378 kts | 335° |
| 2026-05-06 16:58 | 53.78521 | -2.13171 | 35018 ft | 376 kts | 335° |
| 2026-05-06 16:58 | 53.83346 | -2.16445 | 35018 ft | 376 kts | 335° |
| 2026-05-06 16:59 | 53.88202 | -2.19756 | 35021 ft | 376 kts | 335° |
| 2026-05-06 16:59 | 53.93054 | -2.23081 | 35024 ft | 376 kts | 335° |
| 2026-05-06 17:00 | 53.97896 | -2.26408 | 35038 ft | 376 kts | 335° |
| 2026-05-06 17:00 | 54.02732 | -2.29738 | 35028 ft | 375 kts | 335° |
| 2026-05-06 17:01 | 54.07568 | -2.33076 | 35024 ft | 375 kts | 335° |
| 2026-05-06 17:01 | 54.12402 | -2.36421 | 35021 ft | 375 kts | 335° |
| 2026-05-06 17:02 | 54.17232 | -2.39772 | 35021 ft | 375 kts | 335° |
| 2026-05-06 17:02 | 54.22064 | -2.43133 | 35023 ft | 375 kts | 335° |
| 2026-05-06 17:03 | 54.26862 | -2.46478 | 34896 ft | 374 kts | 335° |
| 2026-05-06 17:03 | 54.29267 | -2.48159 | 34686 ft | 373 kts | 335° |
| 2026-05-06 17:03 | 54.31667 | -2.49837 | 34459 ft | 372 kts | 335° |
| 2026-05-06 17:03 | 54.34063 | -2.51516 | 34232 ft | 372 kts | 335° |
| 2026-05-06 17:04 | 54.36456 | -2.53194 | 34011 ft | 371 kts | 335° |
| 2026-05-06 17:04 | 54.38850 | -2.54875 | 33757 ft | 371 kts | 335° |
| 2026-05-06 17:04 | 54.41225 | -2.56545 | 33490 ft | 371 kts | 335° |
| 2026-05-06 17:04 | 54.43619 | -2.58230 | 33234 ft | 372 kts | 335° |
| 2026-05-06 17:05 | 54.46016 | -2.59919 | 32979 ft | 372 kts | 335° |
| 2026-05-06 17:05 | 54.48410 | -2.61609 | 32727 ft | 372 kts | 335° |
| 2026-05-06 17:05 | 54.50798 | -2.63296 | 32484 ft | 371 kts | 335° |
| 2026-05-06 17:05 | 54.53191 | -2.64990 | 32127 ft | 372 kts | 335° |
| 2026-05-06 17:06 | 54.55579 | -2.66681 | 31596 ft | 371 kts | 335° |
| 2026-05-06 17:06 | 54.57965 | -2.68374 | 31074 ft | 371 kts | 335° |
| 2026-05-06 17:06 | 54.60354 | -2.70070 | 30631 ft | 371 kts | 336° |
| 2026-05-06 17:06 | 54.62742 | -2.71768 | 30233 ft | 371 kts | 336° |
| 2026-05-06 17:07 | 54.65116 | -2.73459 | 29769 ft | 372 kts | 336° |
| 2026-05-06 17:07 | 54.67521 | -2.75173 | 29314 ft | 373 kts | 336° |
| 2026-05-06 17:07 | 54.69923 | -2.76888 | 28907 ft | 375 kts | 336° |
| 2026-05-06 17:07 | 54.72335 | -2.78612 | 28520 ft | 376 kts | 336° |
| 2026-05-06 17:08 | 54.74748 | -2.80339 | 28103 ft | 375 kts | 336° |
| 2026-05-06 17:08 | 54.77162 | -2.82069 | 27690 ft | 376 kts | 335° |
| 2026-05-06 17:08 | 54.79576 | -2.83801 | 27281 ft | 377 kts | 335° |
| 2026-05-06 17:08 | 54.81971 | -2.85522 | 26884 ft | 378 kts | 335° |
| 2026-05-06 17:09 | 54.84405 | -2.87271 | 26480 ft | 379 kts | 335° |
| 2026-05-06 17:09 | 54.86838 | -2.89023 | 26088 ft | 380 kts | 335° |
| 2026-05-06 17:09 | 54.89270 | -2.90779 | 25560 ft | 380 kts | 335° |
| 2026-05-06 17:09 | 54.91713 | -2.92544 | 25017 ft | 380 kts | 335° |
| 2026-05-06 17:10 | 54.94150 | -2.94306 | 24519 ft | 379 kts | 335° |
| 2026-05-06 17:10 | 54.96578 | -2.96066 | 24007 ft | 378 kts | 335° |
| 2026-05-06 17:10 | 54.99009 | -2.97829 | 23475 ft | 378 kts | 335° |
| 2026-05-06 17:10 | 55.01435 | -2.99587 | 22855 ft | 377 kts | 335° |
| 2026-05-06 17:11 | 55.03824 | -3.01403 | 22270 ft | 374 kts | 332° |
| 2026-05-06 17:11 | 55.06222 | -3.03137 | 21794 ft | 372 kts | 338° |
| 2026-05-06 17:11 | 55.08658 | -3.04608 | 21294 ft | 370 kts | 338° |
| 2026-05-06 17:11 | 55.11069 | -3.06106 | 20794 ft | 368 kts | 338° |
| 2026-05-06 17:12 | 55.13477 | -3.07603 | 20283 ft | 367 kts | 337° |
| 2026-05-06 17:12 | 55.15880 | -3.09098 | 19734 ft | 367 kts | 338° |
| 2026-05-06 17:12 | 55.18291 | -3.10599 | 19183 ft | 368 kts | 337° |
| 2026-05-06 17:12 | 55.20729 | -3.12119 | 18410 ft | 375 kts | 337° |
| 2026-05-06 17:13 | 55.23205 | -3.13665 | 17613 ft | 380 kts | 337° |
| 2026-05-06 17:13 | 55.25692 | -3.15227 | 17076 ft | 378 kts | 337° |
| 2026-05-06 17:13 | 55.28112 | -3.16754 | 16676 ft | 372 kts | 337° |
| 2026-05-06 17:13 | 55.30527 | -3.18283 | 16242 ft | 368 kts | 337° |
| 2026-05-06 17:14 | 55.32917 | -3.19803 | 15847 ft | 363 kts | 337° |
| 2026-05-06 17:14 | 55.35255 | -3.21298 | 15473 ft | 354 kts | 337° |
| 2026-05-06 17:14 | 55.37525 | -3.22749 | 15124 ft | 340 kts | 337° |
| 2026-05-06 17:14 | 55.39713 | -3.24148 | 14814 ft | 328 kts | 337° |
| 2026-05-06 17:15 | 55.41756 | -3.25715 | 14506 ft | 315 kts | 330° |
| 2026-05-06 17:15 | 55.43668 | -3.27499 | 14251 ft | 308 kts | 329° |
| 2026-05-06 17:15 | 55.45522 | -3.29247 | 14001 ft | 296 kts | 329° |
| 2026-05-06 17:15 | 55.47307 | -3.30931 | 13769 ft | 285 kts | 329° |
| 2026-05-06 17:16 | 55.49019 | -3.32537 | 13549 ft | 275 kts | 329° |
| 2026-05-06 17:16 | 55.50690 | -3.34102 | 13348 ft | 271 kts | 329° |
| 2026-05-06 17:16 | 55.51797 | -3.35127 | 13234 ft | 271 kts | 329° |
| 2026-05-06 17:16 | 55.53464 | -3.36676 | 13075 ft | 271 kts | 329° |
| 2026-05-06 17:17 | 55.55128 | -3.38226 | 12908 ft | 271 kts | 329° |
| 2026-05-06 17:17 | 55.56788 | -3.39780 | 12627 ft | 271 kts | 329° |
| 2026-05-06 17:17 | 55.58448 | -3.41338 | 12301 ft | 269 kts | 329° |
| 2026-05-06 17:17 | 55.60099 | -3.42894 | 11993 ft | 269 kts | 329° |
| 2026-05-06 17:18 | 55.61745 | -3.44454 | 11680 ft | 268 kts | 329° |
| 2026-05-06 17:18 | 55.63385 | -3.46014 | 11383 ft | 267 kts | 329° |
| 2026-05-06 17:18 | 55.65020 | -3.47577 | 11082 ft | 267 kts | 329° |
| 2026-05-06 17:18 | 55.66650 | -3.49143 | 10796 ft | 266 kts | 329° |
| 2026-05-06 17:19 | 55.68276 | -3.50712 | 10427 ft | 267 kts | 329° |
| 2026-05-06 17:19 | 55.69905 | -3.52295 | 9979 ft | 268 kts | 329° |
| 2026-05-06 17:19 | 55.71536 | -3.53889 | 9507 ft | 267 kts | 329° |
| 2026-05-06 17:19 | 55.73156 | -3.55479 | 9025 ft | 266 kts | 329° |
| 2026-05-06 17:20 | 55.74775 | -3.57069 | 8544 ft | 265 kts | 329° |
| 2026-05-06 17:20 | 55.76384 | -3.58652 | 8065 ft | 264 kts | 329° |
| 2026-05-06 17:20 | 55.77984 | -3.60227 | 7604 ft | 263 kts | 329° |
| 2026-05-06 17:20 | 55.79579 | -3.61806 | 7151 ft | 262 kts | 329° |
| 2026-05-06 17:21 | 55.81168 | -3.63382 | 6691 ft | 261 kts | 329° |
| 2026-05-06 17:21 | 55.82753 | -3.64951 | 6237 ft | 260 kts | 329° |
| 2026-05-06 17:21 | 55.84306 | -3.66491 | 6015 ft | 250 kts | 329° |
| 2026-05-06 17:21 | 55.85823 | -3.67994 | 6004 ft | 250 kts | 329° |
| 2026-05-06 17:22 | 55.87144 | -3.69867 | 5971 ft | 245 kts | 301° |
| 2026-05-06 17:22 | 55.87608 | -3.72671 | 5985 ft | 239 kts | 264° |
| 2026-05-06 17:22 | 55.87012 | -3.75368 | 5943 ft | 237 kts | 227° |
| 2026-05-06 17:22 | 55.85628 | -3.76857 | 5694 ft | 236 kts | 191° |
| 2026-05-06 17:23 | 55.83992 | -3.76727 | 5417 ft | 238 kts | 170° |
| 2026-05-06 17:23 | 55.82366 | -3.76123 | 5130 ft | 239 kts | 169° |
| 2026-05-06 17:23 | 55.80821 | -3.75120 | 4795 ft | 239 kts | 143° |
| 2026-05-06 17:23 | 55.79881 | -3.72732 | 4472 ft | 241 kts | 106° |
| 2026-05-06 17:24 | 55.79966 | -3.69810 | 4144 ft | 240 kts | 68° |
| 2026-05-06 17:24 | 55.81023 | -3.67589 | 3814 ft | 237 kts | 34° |
| 2026-05-06 17:24 | 55.82438 | -3.66147 | 3508 ft | 232 kts | 29° |
| 2026-05-06 17:24 | 55.83827 | -3.64816 | 3185 ft | 228 kts | 29° |
| 2026-05-06 17:25 | 55.85193 | -3.63512 | 3027 ft | 216 kts | 29° |
| 2026-05-06 17:25 | 55.86397 | -3.62103 | 2969 ft | 200 kts | 46° |
| 2026-05-06 17:25 | 55.87256 | -3.60174 | 2972 ft | 200 kts | 60° |
| 2026-05-06 17:25 | 55.87960 | -3.58040 | 2718 ft | 200 kts | 62° |
| 2026-05-06 17:26 | 55.88662 | -3.55914 | 2456 ft | 197 kts | 61° |
| 2026-05-06 17:26 | 55.89360 | -3.53848 | 2192 ft | 195 kts | 60° |
| 2026-05-06 17:26 | 55.90052 | -3.51815 | 1915 ft | 185 kts | 61° |
| 2026-05-06 17:26 | 55.90684 | -3.49959 | 1654 ft | 166 kts | 60° |
| 2026-05-06 17:27 | 55.91243 | -3.48309 | 1464 ft | 147 kts | 61° |
| 2026-05-06 17:27 | 55.91777 | -3.46799 | 1195 ft | 142 kts | 60° |
| 2026-05-06 17:27 | 55.92286 | -3.45317 | 1045 ft | 139 kts | 62° |
| 2026-05-06 17:27 | 55.92766 | -3.43837 | 850 ft | 136 kts | 60° |
| 2026-05-06 17:28 | 55.93238 | -3.42429 | 684 ft | 133 kts | 59° |
| 2026-05-06 17:28 | 55.93733 | -3.41000 | 462 ft | 139 kts | 58° |
| 2026-05-06 17:28 | 55.94236 | -3.39494 | 253 ft | 143 kts | 57° |
| 2026-05-06 17:28 | 55.94723 | -3.38064 | 118 ft | 129 kts | 58° |
| 2026-05-06 17:29 | 55.95144 | -3.36830 | 116 ft | 106 kts | 60° |